Time,TemperatureF,DewpointF,PressureIn,WindDirection,WindDirectionDegrees,WindSpeedMPH,WindSpeedGustMPH,Humidity,HourlyPrecipIn,Conditions,Clouds,dailyrainin,SoftwareType,DateUTC
2013-05-18 00:01:00,62.8,46.3,29.99,ESE,112,0.0,1.8,55,0.00,,,0.00,WUHU21623XXSP,2013-05-18 05:01:00,
2013-05-18 00:06:00,62.8,46.3,29.99,ENE,67,0.0,2.2,55,0.00,,,0.00,WUHU21623XXSP,2013-05-18 05:06:00,
2013-05-18 00:11:00,62.8,46.3,29.99,ENE,67,0.0,2.2,55,0.00,,,0.00,WUHU21623XXSP,2013-05-18 05:11:00,
2013-05-18 00:16:00,62.4,46.0,30.00,East,90,1.1,1.1,55,0.00,,,0.00,WUHU21623XXSP,2013-05-18 05:16:00,
2013-05-18 00:21:00,62.2,45.8,30.00,SE,135,0.9,1.1,55,0.00,,,0.00,WUHU21623XXSP,2013-05-18 05:21:00,
2013-05-18 00:26:00,62.2,45.8,30.00,SSE,157,0.0,0.9,55,0.00,,,0.00,WUHU21623XXSP,2013-05-18 05:26:00,
2013-05-18 00:31:00,62.1,45.6,29.99,ENE,67,0.0,0.0,55,0.00,,,0.00,WUHU21623XXSP,2013-05-18 05:31:00,
2013-05-18 00:36:00,62.1,46.1,29.99,ESE,112,0.0,0.0,56,0.00,,,0.00,WUHU21623XXSP,2013-05-18 05:36:00,
2013-05-18 00:41:00,62.1,46.1,29.99,SE,135,1.6,1.6,56,0.00,,,0.00,WUHU21623XXSP,2013-05-18 05:41:00,
2013-05-18 00:46:00,62.1,46.1,29.99,SE,135,0.0,1.6,56,0.00,,,0.00,WUHU21623XXSP,2013-05-18 05:46:00,
2013-05-18 00:51:00,61.9,46.0,29.99,ENE,67,0.0,0.0,56,0.00,,,0.00,WUHU21623XXSP,2013-05-18 05:51:00,
2013-05-18 00:56:00,61.9,46.0,30.00,NE,45,0.0,0.0,56,0.00,,,0.00,WUHU21623XXSP,2013-05-18 05:56:00,
2013-05-18 01:01:00,61.7,45.8,29.99,NE,45,0.0,0.0,56,0.00,,,0.00,WUHU21623XXSP,2013-05-18 06:01:00,
2013-05-18 01:06:00,61.7,45.8,29.99,NNE,22,0.0,0.0,56,0.00,,,0.00,WUHU21623XXSP,2013-05-18 06:06:00,
2013-05-18 01:11:00,61.5,46.1,30.00,East,90,0.9,0.9,57,0.00,,,0.00,WUHU21623XXSP,2013-05-18 06:11:00,
2013-05-18 01:16:00,61.3,46.0,29.99,ENE,67,0.0,0.9,57,0.00,,,0.00,WUHU21623XXSP,2013-05-18 06:16:00,
2013-05-18 01:21:00,61.3,46.5,29.99,ESE,112,1.1,1.1,58,0.00,,,0.00,WUHU21623XXSP,2013-05-18 06:21:00,
2013-05-18 01:26:00,61.2,46.3,29.99,SE,135,0.0,1.1,58,0.00,,,0.00,WUHU21623XXSP,2013-05-18 06:26:00,
2013-05-18 01:31:00,61.2,46.3,30.00,ENE,67,0.0,0.0,58,0.00,,,0.00,WUHU21623XXSP,2013-05-18 06:31:00,
2013-05-18 01:36:00,61.2,46.3,30.00,East,90,0.0,2.5,58,0.00,,,0.00,WUHU21623XXSP,2013-05-18 06:36:00,
2013-05-18 01:41:00,61.0,46.6,29.99,ESE,112,0.0,2.5,59,0.00,,,0.00,WUHU21623XXSP,2013-05-18 06:41:00,
2013-05-18 01:46:00,61.0,46.6,30.00,NE,45,0.7,0.7,59,0.00,,,0.00,WUHU21623XXSP,2013-05-18 06:46:00,
2013-05-18 01:51:00,61.0,46.6,30.01,North,0,0.0,1.6,59,0.00,,,0.00,WUHU21623XXSP,2013-05-18 06:51:00,
2013-05-18 01:56:00,60.4,46.1,30.01,NNE,22,2.7,2.7,59,0.00,,,0.00,WUHU21623XXSP,2013-05-18 06:56:00,
2013-05-18 02:01:00,60.4,46.1,30.01,NNE,22,2.5,2.7,59,0.00,,,0.00,WUHU21623XXSP,2013-05-18 07:01:00,
2013-05-18 02:06:00,60.4,46.1,30.01,NNE,22,0.0,3.1,59,0.00,,,0.00,WUHU21623XXSP,2013-05-18 07:06:00,
2013-05-18 02:11:00,60.4,46.1,30.01,North,0,1.3,3.1,59,0.00,,,0.00,WUHU21623XXSP,2013-05-18 07:11:00,
2013-05-18 02:16:00,60.3,45.9,30.01,NNE,22,0.0,1.8,59,0.00,,,0.00,WUHU21623XXSP,2013-05-18 07:16:00,
2013-05-18 02:21:00,60.1,45.7,30.01,NE,45,1.1,1.8,59,0.00,,,0.00,WUHU21623XXSP,2013-05-18 07:21:00,
2013-05-18 02:26:00,59.9,46.0,30.01,NNE,22,2.2,2.2,60,0.00,,,0.00,WUHU21623XXSP,2013-05-18 07:26:00,
2013-05-18 02:31:00,59.9,46.0,30.01,NE,45,0.0,2.2,60,0.00,,,0.00,WUHU21623XXSP,2013-05-18 07:31:00,
2013-05-18 02:36:00,59.7,45.9,30.01,NE,45,0.0,2.5,60,0.00,,,0.00,WUHU21623XXSP,2013-05-18 07:36:00,
2013-05-18 02:41:00,59.5,46.1,30.01,NE,45,0.0,2.5,61,0.00,,,0.00,WUHU21623XXSP,2013-05-18 07:41:00,
2013-05-18 02:46:00,59.4,45.9,30.01,NE,45,0.0,0.4,61,0.00,,,0.00,WUHU21623XXSP,2013-05-18 07:46:00,
2013-05-18 02:51:00,59.4,45.9,30.01,NNE,22,0.0,0.4,61,0.00,,,0.00,WUHU21623XXSP,2013-05-18 07:51:00,
2013-05-18 02:56:00,59.4,46.3,30.01,NE,45,0.0,1.1,62,0.00,,,0.00,WUHU21623XXSP,2013-05-18 07:56:00,
2013-05-18 03:01:00,59.2,46.1,30.01,NNE,22,1.3,2.5,62,0.00,,,0.00,WUHU21623XXSP,2013-05-18 08:01:00,
2013-05-18 03:06:00,59.2,46.1,30.01,North,0,0.0,2.5,62,0.00,,,0.00,WUHU21623XXSP,2013-05-18 08:06:00,
2013-05-18 03:11:00,59.0,46.0,30.01,NE,45,1.6,2.0,62,0.00,,,0.00,WUHU21623XXSP,2013-05-18 08:11:00,
2013-05-18 03:16:00,58.8,45.8,30.01,NNE,22,3.1,3.1,62,0.00,,,0.00,WUHU21623XXSP,2013-05-18 08:16:00,
2013-05-18 03:21:00,58.8,46.2,30.02,East,90,1.3,3.4,63,0.00,,,0.00,WUHU21623XXSP,2013-05-18 08:21:00,
2013-05-18 03:26:00,58.6,46.0,30.01,ENE,67,3.6,3.6,63,0.00,,,0.00,WUHU21623XXSP,2013-05-18 08:26:00,
2013-05-18 03:31:00,58.5,45.9,30.01,NE,45,0.9,3.6,63,0.00,,,0.00,WUHU21623XXSP,2013-05-18 08:31:00,
2013-05-18 03:36:00,58.5,45.9,30.01,ESE,112,0.0,1.3,63,0.00,,,0.00,WUHU21623XXSP,2013-05-18 08:36:00,
2013-05-18 03:41:00,58.5,45.9,30.01,ENE,67,0.0,2.5,63,0.00,,,0.00,WUHU21623XXSP,2013-05-18 08:41:00,
2013-05-18 03:46:00,58.5,45.9,30.02,NE,45,0.7,2.5,63,0.00,,,0.00,WUHU21623XXSP,2013-05-18 08:46:00,
2013-05-18 03:51:00,58.5,45.9,30.02,NE,45,0.0,2.0,63,0.00,,,0.00,WUHU21623XXSP,2013-05-18 08:51:00,
2013-05-18 03:56:00,58.3,45.7,30.01,NE,45,1.6,2.0,63,0.00,,,0.00,WUHU21623XXSP,2013-05-18 08:56:00,
2013-05-18 04:01:00,58.3,45.7,30.01,ENE,67,2.0,2.0,63,0.00,,,0.00,WUHU21623XXSP,2013-05-18 09:01:00,
2013-05-18 04:06:00,58.3,45.7,30.01,NE,45,1.3,2.0,63,0.00,,,0.00,WUHU21623XXSP,2013-05-18 09:06:00,
2013-05-18 04:11:00,58.3,45.7,30.01,NE,45,2.2,2.2,63,0.00,,,0.00,WUHU21623XXSP,2013-05-18 09:11:00,
2013-05-18 04:16:00,58.1,45.5,30.01,East,90,2.2,2.2,63,0.00,,,0.00,WUHU21623XXSP,2013-05-18 09:16:00,
2013-05-18 04:21:00,58.1,45.5,30.01,ENE,67,1.6,2.2,63,0.00,,,0.00,WUHU21623XXSP,2013-05-18 09:21:00,
2013-05-18 04:26:00,58.1,45.5,30.01,ESE,112,0.7,1.6,63,0.00,,,0.00,WUHU21623XXSP,2013-05-18 09:26:00,
2013-05-18 04:31:00,58.3,45.7,30.01,ENE,67,3.6,3.6,63,0.00,,,0.00,WUHU21623XXSP,2013-05-18 09:31:00,
2013-05-18 04:36:00,58.1,45.5,30.01,NNE,22,0.9,3.6,63,0.00,,,0.00,WUHU21623XXSP,2013-05-18 09:36:00,
2013-05-18 04:41:00,58.1,45.5,30.01,NE,45,0.9,3.4,63,0.00,,,0.00,WUHU21623XXSP,2013-05-18 09:41:00,
2013-05-18 04:46:00,58.1,45.5,30.01,NE,45,0.0,0.9,63,0.00,,,0.00,WUHU21623XXSP,2013-05-18 09:46:00,
2013-05-18 04:51:00,58.1,45.5,30.01,ENE,67,1.1,1.1,63,0.00,,,0.00,WUHU21623XXSP,2013-05-18 09:51:00,
2013-05-18 04:56:00,57.9,45.8,30.01,NE,45,0.0,1.1,64,0.00,,,0.00,WUHU21623XXSP,2013-05-18 09:56:00,
2013-05-18 05:01:00,57.9,45.8,30.01,North,0,0.0,3.4,64,0.00,,,0.00,WUHU21623XXSP,2013-05-18 10:01:00,
2013-05-18 05:06:00,57.9,45.8,30.02,NNE,22,2.9,3.4,64,0.00,,,0.00,WUHU21623XXSP,2013-05-18 10:06:00,
2013-05-18 05:11:00,57.9,45.8,30.01,NNE,22,2.5,2.9,64,0.00,,,0.00,WUHU21623XXSP,2013-05-18 10:11:00,
2013-05-18 05:16:00,57.9,45.8,30.01,NNE,22,0.9,2.5,64,0.00,,,0.00,WUHU21623XXSP,2013-05-18 10:16:00,
2013-05-18 05:21:00,57.9,46.2,30.01,NE,45,0.0,1.3,65,0.00,,,0.00,WUHU21623XXSP,2013-05-18 10:21:00,
2013-05-18 05:26:00,57.9,46.2,30.01,ENE,67,0.0,0.9,65,0.00,,,0.00,WUHU21623XXSP,2013-05-18 10:26:00,
2013-05-18 05:31:00,57.7,46.0,30.01,East,90,1.8,1.8,65,0.00,,,0.00,WUHU21623XXSP,2013-05-18 10:31:00,
2013-05-18 05:36:00,57.7,46.0,30.01,NNE,22,1.3,1.8,65,0.00,,,0.00,WUHU21623XXSP,2013-05-18 10:36:00,
2013-05-18 05:41:00,57.9,46.2,30.01,NE,45,1.1,2.5,65,0.00,,,0.00,WUHU21623XXSP,2013-05-18 10:41:00,
2013-05-18 05:46:00,57.9,46.6,30.01,East,90,0.0,2.5,66,0.00,,,0.00,WUHU21623XXSP,2013-05-18 10:46:00,
2013-05-18 05:51:00,57.7,46.4,30.01,SSE,157,1.1,1.3,66,0.00,,,0.00,WUHU21623XXSP,2013-05-18 10:51:00,
2013-05-18 05:56:00,57.9,46.6,30.01,SSE,157,0.0,1.1,66,0.00,,,0.00,WUHU21623XXSP,2013-05-18 10:56:00,
2013-05-18 06:01:00,57.9,46.6,30.01,NE,45,1.8,1.8,66,0.00,,,0.00,WUHU21623XXSP,2013-05-18 11:01:00,
2013-05-18 06:06:00,57.9,46.2,30.01,ESE,112,0.0,1.8,65,0.00,,,0.00,WUHU21623XXSP,2013-05-18 11:06:00,
2013-05-18 06:11:00,58.1,46.8,30.01,East,90,2.2,2.2,65,0.00,,,0.00,WUHU21623XXSP,2013-05-18 11:11:00,
2013-05-18 06:16:00,58.1,46.8,30.01,ENE,67,0.0,2.2,66,0.00,,,0.00,WUHU21623XXSP,2013-05-18 11:16:00,
2013-05-18 06:21:00,58.3,46.9,30.01,ESE,112,0.9,0.9,66,0.00,,,0.00,WUHU21623XXSP,2013-05-18 11:21:00,
2013-05-18 06:26:00,58.5,47.5,30.01,ESE,112,0.0,0.9,67,0.00,,,0.00,WUHU21623XXSP,2013-05-18 11:26:00,
2013-05-18 06:31:00,58.6,47.7,30.01,SSE,157,6.5,6.5,67,0.00,,,0.00,WUHU21623XXSP,2013-05-18 11:31:00,
2013-05-18 06:36:00,58.6,48.1,30.01,ESE,112,0.0,6.5,68,0.00,,,0.00,WUHU21623XXSP,2013-05-18 11:36:00,
2013-05-18 06:41:00,59.2,49.0,30.01,SE,135,2.5,2.5,69,0.00,,,0.00,WUHU21623XXSP,2013-05-18 11:41:00,
2013-05-18 06:46:00,59.4,49.6,30.01,SSE,157,0.0,2.5,70,0.00,,,0.00,WUHU21623XXSP,2013-05-18 11:46:00,
2013-05-18 06:51:00,59.7,50.0,30.01,ESE,112,0.0,0.2,70,0.00,,,0.00,WUHU21623XXSP,2013-05-18 11:51:00,
2013-05-18 06:56:00,60.3,50.5,30.01,SE,135,0.9,0.9,70,0.00,,,0.00,WUHU21623XXSP,2013-05-18 11:56:00,
2013-05-18 07:01:00,60.4,50.7,30.02,ESE,112,1.6,1.6,70,0.00,,,0.00,WUHU21623XXSP,2013-05-18 12:01:00,
2013-05-18 07:06:00,61.0,51.2,30.02,ESE,112,0.7,1.6,70,0.00,,,0.00,WUHU21623XXSP,2013-05-18 12:06:00,
2013-05-18 07:11:00,61.5,51.7,30.02,ENE,67,1.3,1.3,70,0.00,,,0.00,WUHU21623XXSP,2013-05-18 12:11:00,
2013-05-18 07:16:00,61.7,51.9,30.02,ESE,112,0.0,5.8,70,0.00,,,0.00,WUHU21623XXSP,2013-05-18 12:16:00,
2013-05-18 07:21:00,62.1,52.2,30.02,SE,135,0.0,5.8,70,0.00,,,0.00,WUHU21623XXSP,2013-05-18 12:21:00,
2013-05-18 07:26:00,62.8,53.2,30.02,ESE,112,1.1,1.6,71,0.00,,,0.00,WUHU21623XXSP,2013-05-18 12:26:00,
2013-05-18 07:31:00,63.0,53.4,30.02,SE,135,0.0,1.1,71,0.00,,,0.00,WUHU21623XXSP,2013-05-18 12:31:00,
2013-05-18 07:36:00,63.3,53.8,30.02,ESE,112,1.3,1.3,71,0.00,,,0.00,WUHU21623XXSP,2013-05-18 12:36:00,
2013-05-18 07:41:00,63.5,54.0,30.02,SE,135,0.0,4.5,71,0.00,,,0.00,WUHU21623XXSP,2013-05-18 12:41:00,
2013-05-18 07:46:00,63.7,54.1,30.02,SE,135,4.5,4.5,71,0.00,,,0.00,WUHU21623XXSP,2013-05-18 12:46:00,
2013-05-18 07:51:00,63.9,54.3,30.01,ESE,112,1.1,4.5,71,0.00,,,0.00,WUHU21623XXSP,2013-05-18 12:51:00,
2013-05-18 07:56:00,64.2,54.7,30.02,East,90,0.0,1.1,71,0.00,,,0.00,WUHU21623XXSP,2013-05-18 12:56:00,
2013-05-18 08:01:00,64.4,54.9,30.02,SE,135,0.0,0.9,71,0.00,,,0.00,WUHU21623XXSP,2013-05-18 13:01:00,
2013-05-18 08:06:00,64.6,55.0,30.02,South,180,0.0,0.9,71,0.00,,,0.00,WUHU21623XXSP,2013-05-18 13:06:00,
2013-05-18 08:11:00,65.3,55.3,30.01,SSE,157,1.6,1.6,70,0.00,,,0.00,WUHU21623XXSP,2013-05-18 13:11:00,
2013-05-18 08:16:00,65.7,55.2,30.01,SSE,157,0.0,1.6,69,0.00,,,0.00,WUHU21623XXSP,2013-05-18 13:16:00,
2013-05-18 08:21:00,66.4,55.9,30.02,ESE,112,1.1,1.1,69,0.00,,,0.00,WUHU21623XXSP,2013-05-18 13:21:00,
2013-05-18 08:26:00,66.9,56.4,30.01,SE,135,0.0,1.1,69,0.00,,,0.00,WUHU21623XXSP,2013-05-18 13:26:00,
2013-05-18 08:31:00,67.6,56.7,30.02,SE,135,1.6,3.1,68,0.00,,,0.00,WUHU21623XXSP,2013-05-18 13:31:00,
2013-05-18 08:36:00,68.4,57.4,30.01,East,90,0.0,3.1,68,0.00,,,0.00,WUHU21623XXSP,2013-05-18 13:36:00,
2013-05-18 08:41:00,68.9,58.3,30.02,SSW,202,0.0,0.0,69,0.00,,,0.00,WUHU21623XXSP,2013-05-18 13:41:00,
2013-05-18 08:46:00,69.4,58.0,30.01,SE,135,1.1,1.3,67,0.00,,,0.00,WUHU21623XXSP,2013-05-18 13:46:00,
2013-05-18 08:51:00,70.0,58.5,30.01,SSE,157,0.0,1.3,67,0.00,,,0.00,WUHU21623XXSP,2013-05-18 13:51:00,
2013-05-18 08:56:00,70.7,59.2,30.02,SSE,157,0.7,1.3,67,0.00,,,0.00,WUHU21623XXSP,2013-05-18 13:56:00,
2013-05-18 09:01:00,71.2,59.3,30.02,SE,135,0.9,1.3,66,0.00,,,0.00,WUHU21623XXSP,2013-05-18 14:01:00,
2013-05-18 09:06:00,71.8,59.8,30.01,SE,135,1.1,1.1,66,0.00,,,0.00,WUHU21623XXSP,2013-05-18 14:06:00,
2013-05-18 09:11:00,72.0,59.1,30.01,SSE,157,0.0,2.7,64,0.00,,,0.00,WUHU21623XXSP,2013-05-18 14:11:00,
2013-05-18 09:16:00,72.1,59.3,30.01,SE,135,0.0,2.7,64,0.00,,,0.00,WUHU21623XXSP,2013-05-18 14:16:00,
2013-05-18 09:21:00,72.5,59.6,30.01,SE,135,1.3,3.6,64,0.00,,,0.00,WUHU21623XXSP,2013-05-18 14:21:00,
2013-05-18 09:26:00,72.7,58.9,30.01,SE,135,3.8,3.8,62,0.00,,,0.00,WUHU21623XXSP,2013-05-18 14:26:00,
2013-05-18 09:31:00,72.9,59.0,30.01,SE,135,0.7,3.8,62,0.00,,,0.00,WUHU21623XXSP,2013-05-18 14:31:00,
2013-05-18 09:36:00,73.0,59.2,30.01,SE,135,3.6,3.8,62,0.00,,,0.00,WUHU21623XXSP,2013-05-18 14:36:00,
2013-05-18 09:41:00,73.6,59.7,30.01,SSE,157,1.1,3.8,62,0.00,,,0.00,WUHU21623XXSP,2013-05-18 14:41:00,
2013-05-18 09:46:00,73.8,59.9,30.01,SE,135,2.0,2.0,62,0.00,,,0.00,WUHU21623XXSP,2013-05-18 14:46:00,
2013-05-18 09:51:00,74.1,60.2,30.01,SE,135,0.9,2.0,62,0.00,,,0.00,WUHU21623XXSP,2013-05-18 14:51:00,
2013-05-18 09:56:00,74.3,60.0,30.01,South,180,0.0,3.1,61,0.00,,,0.00,WUHU21623XXSP,2013-05-18 14:56:00,
2013-05-18 10:01:00,74.7,60.3,30.01,South,180,0.0,3.1,61,0.00,,,0.00,WUHU21623XXSP,2013-05-18 15:01:00,
2013-05-18 10:06:00,74.7,59.9,30.01,SE,135,1.6,2.9,60,0.00,,,0.00,WUHU21623XXSP,2013-05-18 15:06:00,
2013-05-18 10:11:00,74.8,59.6,30.01,ESE,112,1.3,2.9,59,0.00,,,0.00,WUHU21623XXSP,2013-05-18 15:11:00,
2013-05-18 10:16:00,75.0,59.8,30.01,SSE,157,4.0,4.0,59,0.00,,,0.00,WUHU21623XXSP,2013-05-18 15:16:00,
2013-05-18 10:21:00,75.2,59.4,30.01,SE,135,0.0,4.0,58,0.00,,,0.00,WUHU21623XXSP,2013-05-18 15:21:00,
2013-05-18 10:26:00,75.4,59.6,30.01,SW,225,0.0,0.9,58,0.00,,,0.00,WUHU21623XXSP,2013-05-18 15:26:00,
2013-05-18 10:31:00,75.7,59.4,30.01,SE,135,5.1,5.1,57,0.00,,,0.00,WUHU21623XXSP,2013-05-18 15:31:00,
2013-05-18 10:36:00,76.1,58.7,30.01,SSE,157,0.4,5.1,55,0.00,,,0.00,WUHU21623XXSP,2013-05-18 15:36:00,
2013-05-18 10:41:00,76.1,58.2,30.01,SE,135,1.3,2.2,54,0.00,,,0.00,WUHU21623XXSP,2013-05-18 15:41:00,
2013-05-18 10:46:00,76.1,58.2,30.01,ESE,112,0.0,2.2,54,0.00,,,0.00,WUHU21623XXSP,2013-05-18 15:46:00,
2013-05-18 10:51:00,76.3,58.4,30.01,ESE,112,2.7,2.7,54,0.00,,,0.00,WUHU21623XXSP,2013-05-18 15:51:00,
2013-05-18 10:56:00,76.5,58.0,30.01,SE,135,1.8,2.7,53,0.00,,,0.00,WUHU21623XXSP,2013-05-18 15:56:00,
2013-05-18 11:00:00,76.3,57.9,30.01,SW,225,0.0,2.9,53,0.00,,,0.00,WUHU21623XXSP,2013-05-18 16:00:00,
2013-05-18 11:05:00,76.5,58.0,30.01,SSE,157,0.7,2.9,53,0.00,,,0.00,WUHU21623XXSP,2013-05-18 16:05:00,
2013-05-18 11:10:00,76.6,58.2,30.01,SE,135,0.0,2.2,53,0.00,,,0.00,WUHU21623XXSP,2013-05-18 16:10:00,
2013-05-18 11:15:00,76.8,58.4,30.01,ENE,67,0.0,1.3,53,0.00,,,0.00,WUHU21623XXSP,2013-05-18 16:15:00,
2013-05-18 11:20:00,76.8,57.9,30.01,South,180,1.6,1.6,52,0.00,,,0.00,WUHU21623XXSP,2013-05-18 16:20:00,
2013-05-18 11:25:00,76.8,57.9,30.01,SSW,202,2.5,2.5,52,0.14,,,0.14,WUHU21623XXSP,2013-05-18 16:25:00,
2013-05-18 11:30:00,77.0,58.0,30.01,SSE,157,0.7,2.5,52,0.14,,,0.14,WUHU21623XXSP,2013-05-18 16:30:00,
2013-05-18 11:35:00,77.2,58.2,30.01,ENE,67,0.0,1.1,52,0.14,,,0.14,WUHU21623XXSP,2013-05-18 16:35:00,
2013-05-18 11:40:00,77.4,57.8,30.01,South,180,2.0,2.0,51,0.14,,,0.14,WUHU21623XXSP,2013-05-18 16:40:00,
2013-05-18 11:45:00,78.3,58.7,30.00,SSE,157,1.8,2.0,51,0.14,,,0.14,WUHU21623XXSP,2013-05-18 16:45:00,
2013-05-18 11:50:00,78.6,57.9,30.00,SE,135,3.4,3.4,49,0.14,,,0.14,WUHU21623XXSP,2013-05-18 16:50:00,
2013-05-18 11:55:00,78.8,56.8,30.01,SE,135,0.4,3.4,47,0.14,,,0.14,WUHU21623XXSP,2013-05-18 16:55:00,
2013-05-18 12:00:00,79.0,57.0,30.00,SE,135,1.6,2.2,47,0.14,,,0.14,WUHU21623XXSP,2013-05-18 17:00:00,
2013-05-18 12:05:00,79.5,57.1,30.00,SE,135,3.6,3.6,46,0.14,,,0.14,WUHU21623XXSP,2013-05-18 17:05:00,
2013-05-18 12:10:00,79.7,56.4,30.00,ESE,112,0.0,3.6,45,0.14,,,0.14,WUHU21623XXSP,2013-05-18 17:10:00,
2013-05-18 12:15:00,79.9,56.6,30.00,ESE,112,0.0,2.0,45,0.14,,,0.14,WUHU21623XXSP,2013-05-18 17:15:00,
2013-05-18 12:20:00,79.7,55.8,30.00,SE,135,4.5,4.7,44,0.14,,,0.14,WUHU21623XXSP,2013-05-18 17:20:00,
2013-05-18 12:25:00,79.3,56.1,30.00,South,180,0.0,4.7,45,0.00,,,0.14,WUHU21623XXSP,2013-05-18 17:25:00,
2013-05-18 12:30:00,79.2,55.9,30.00,SSE,157,0.7,3.8,45,0.00,,,0.14,WUHU21623XXSP,2013-05-18 17:30:00,
2013-05-18 12:35:00,79.0,56.4,29.99,ENE,67,0.0,4.0,46,0.00,,,0.14,WUHU21623XXSP,2013-05-18 17:35:00,
2013-05-18 12:40:00,79.2,56.5,29.99,SSE,157,1.8,4.0,46,0.00,,,0.14,WUHU21623XXSP,2013-05-18 17:40:00,
2013-05-18 12:45:00,79.7,56.4,29.99,SE,135,1.1,2.9,45,0.00,,,0.14,WUHU21623XXSP,2013-05-18 17:45:00,
2013-05-18 12:50:00,80.1,56.1,29.99,ESE,112,3.4,3.4,44,0.00,,,0.14,WUHU21623XXSP,2013-05-18 17:50:00,
2013-05-18 12:55:00,80.4,56.4,29.98,WSW,247,0.0,3.4,44,0.00,,,0.14,WUHU21623XXSP,2013-05-18 17:55:00,
2013-05-18 13:00:00,80.6,56.0,29.98,SE,135,2.2,3.4,43,0.00,,,0.14,WUHU21623XXSP,2013-05-18 18:00:00,
2013-05-18 13:05:00,81.0,56.3,29.98,SSE,157,0.0,2.7,43,0.00,,,0.14,WUHU21623XXSP,2013-05-18 18:05:00,
2013-05-18 13:10:00,81.1,56.5,29.98,South,180,1.8,2.7,43,0.00,,,0.14,WUHU21623XXSP,2013-05-18 18:10:00,
2013-05-18 13:15:00,81.0,56.3,29.98,WSW,247,0.0,4.0,43,0.00,,,0.14,WUHU21623XXSP,2013-05-18 18:15:00,
2013-05-18 13:20:00,80.8,55.5,29.98,SSW,202,0.0,4.0,42,0.00,,,0.14,WUHU21623XXSP,2013-05-18 18:20:00,
2013-05-18 13:25:00,81.0,56.3,29.98,WSW,247,0.7,2.7,43,0.00,,,0.14,WUHU21623XXSP,2013-05-18 18:25:00,
2013-05-18 13:30:00,81.3,56.0,29.98,SE,135,0.4,0.7,42,0.00,,,0.14,WUHU21623XXSP,2013-05-18 18:30:00,
2013-05-18 13:35:00,81.0,55.7,29.98,South,180,2.5,2.5,42,0.00,,,0.14,WUHU21623XXSP,2013-05-18 18:35:00,
2013-05-18 13:40:00,80.8,55.5,29.97,ENE,67,0.9,2.5,42,0.00,,,0.14,WUHU21623XXSP,2013-05-18 18:40:00,
2013-05-18 13:45:00,80.6,55.4,29.97,ESE,112,2.5,2.9,42,0.00,,,0.14,WUHU21623XXSP,2013-05-18 18:45:00,
2013-05-18 13:50:00,80.4,55.8,29.97,ESE,112,1.3,2.9,43,0.00,,,0.14,WUHU21623XXSP,2013-05-18 18:50:00,
2013-05-18 13:55:00,80.4,55.8,29.96,SE,135,1.8,2.5,43,0.00,,,0.14,WUHU21623XXSP,2013-05-18 18:55:00,
2013-05-18 14:00:00,81.3,56.6,29.96,ESE,112,0.0,1.8,43,0.00,,,0.14,WUHU21623XXSP,2013-05-18 19:00:00,
2013-05-18 14:05:00,82.0,56.0,29.96,West,270,2.7,2.7,41,0.00,,,0.14,WUHU21623XXSP,2013-05-18 19:05:00,
2013-05-18 14:10:00,81.9,55.9,29.97,SE,135,1.3,5.4,41,0.00,,,0.14,WUHU21623XXSP,2013-05-18 19:10:00,
2013-05-18 14:15:00,81.3,56.0,29.97,SE,135,0.7,5.4,42,0.00,,,0.14,WUHU21623XXSP,2013-05-18 19:15:00,
2013-05-18 14:20:00,81.1,55.9,29.96,SSE,157,1.8,2.7,42,0.00,,,0.14,WUHU21623XXSP,2013-05-18 19:20:00,
2013-05-18 14:25:00,81.1,55.9,29.96,ESE,112,0.9,3.6,42,0.00,,,0.14,WUHU21623XXSP,2013-05-18 19:25:00,
2013-05-18 14:30:00,80.6,55.5,29.96,SSE,157,0.0,3.6,42,0.00,,,0.14,WUHU21623XXSP,2013-05-18 19:30:00,
2013-05-18 14:35:00,80.4,55.2,29.96,SE,135,0.0,4.0,42,0.00,,,0.14,WUHU21623XXSP,2013-05-18 19:35:00,
2013-05-18 14:40:00,80.4,55.2,29.96,SSW,202,0.0,4.0,42,0.00,,,0.14,WUHU21623XXSP,2013-05-18 19:40:00,
2013-05-18 14:45:00,80.2,55.7,29.96,SSE,157,2.2,2.2,43,0.00,,,0.14,WUHU21623XXSP,2013-05-18 19:45:00,
2013-05-18 14:50:00,80.2,55.7,29.96,SE,135,1.6,2.2,43,0.00,,,0.14,WUHU21623XXSP,2013-05-18 19:50:00,
2013-05-18 14:55:00,80.2,55.7,29.96,ESE,112,0.0,1.6,43,0.00,,,0.14,WUHU21623XXSP,2013-05-18 19:55:00,
2013-05-18 15:00:00,81.3,56.0,29.95,SSE,157,1.3,5.6,42,0.00,,,0.14,WUHU21623XXSP,2013-05-18 20:00:00,
2013-05-18 15:05:00,81.5,56.2,29.95,SE,135,2.2,5.6,42,0.00,,,0.14,WUHU21623XXSP,2013-05-18 20:05:00,
2013-05-18 15:10:00,82.0,56.7,29.95,ESE,112,2.7,2.7,42,0.00,,,0.14,WUHU21623XXSP,2013-05-18 20:10:00,
2013-05-18 15:15:00,82.6,55.9,29.95,SE,135,3.4,3.4,40,0.00,,,0.14,WUHU21623XXSP,2013-05-18 20:15:00,
2013-05-18 15:20:00,82.2,55.6,29.94,East,90,0.7,3.4,40,0.00,,,0.14,WUHU21623XXSP,2013-05-18 20:20:00,
2013-05-18 15:25:00,82.8,56.1,29.94,SE,135,0.0,1.6,40,0.00,,,0.14,WUHU21623XXSP,2013-05-18 20:25:00,
2013-05-18 15:30:00,83.3,55.8,29.94,SSW,202,0.0,2.7,39,0.00,,,0.14,WUHU21623XXSP,2013-05-18 20:30:00,
2013-05-18 15:35:00,83.3,55.0,29.94,South,180,3.1,3.1,38,0.00,,,0.14,WUHU21623XXSP,2013-05-18 20:35:00,
2013-05-18 15:40:00,82.8,54.5,29.94,ESE,112,0.0,6.0,38,0.00,,,0.14,WUHU21623XXSP,2013-05-18 20:40:00,
2013-05-18 15:45:00,83.1,55.6,29.94,East,90,4.9,6.0,39,0.00,,,0.14,WUHU21623XXSP,2013-05-18 20:45:00,
2013-05-18 15:50:00,82.9,55.5,29.94,SE,135,0.0,4.9,39,0.00,,,0.14,WUHU21623XXSP,2013-05-18 20:50:00,
2013-05-18 15:55:00,83.1,55.6,29.94,ESE,112,1.3,4.9,39,0.00,,,0.14,WUHU21623XXSP,2013-05-18 20:55:00,
2013-05-18 16:00:00,83.1,55.6,29.94,South,180,0.0,1.3,39,0.00,,,0.14,WUHU21623XXSP,2013-05-18 21:00:00,
2013-05-18 16:05:00,83.3,55.8,29.94,SW,225,0.0,4.7,38,0.00,,,0.14,WUHU21623XXSP,2013-05-18 21:05:00,
2013-05-18 16:10:00,83.1,54.8,29.94,SW,225,0.0,4.7,38,0.00,,,0.14,WUHU21623XXSP,2013-05-18 21:10:00,
2013-05-18 16:15:00,82.6,55.1,29.94,ESE,112,4.0,4.0,39,0.00,,,0.14,WUHU21623XXSP,2013-05-18 21:15:00,
2013-05-18 16:20:00,82.4,55.0,29.93,SSE,157,2.0,4.0,39,0.00,,,0.14,WUHU21623XXSP,2013-05-18 21:20:00,
2013-05-18 16:25:00,82.6,55.9,29.93,SE,135,0.0,2.0,40,0.00,,,0.14,WUHU21623XXSP,2013-05-18 21:25:00,
2013-05-18 16:30:00,82.6,55.1,29.93,SE,135,0.0,1.6,39,0.00,,,0.14,WUHU21623XXSP,2013-05-18 21:30:00,
2013-05-18 16:35:00,82.8,55.3,29.93,ESE,112,3.4,3.4,39,0.00,,,0.14,WUHU21623XXSP,2013-05-18 21:35:00,
2013-05-18 16:40:00,83.1,55.6,29.93,ESE,112,2.5,3.4,39,0.00,,,0.14,WUHU21623XXSP,2013-05-18 21:40:00,
2013-05-18 16:45:00,83.1,55.6,29.94,SSE,157,0.0,3.1,39,0.00,,,0.14,WUHU21623XXSP,2013-05-18 21:45:00,
2013-05-18 16:50:00,82.9,55.5,29.93,East,90,4.7,4.7,39,0.00,,,0.14,WUHU21623XXSP,2013-05-18 21:50:00,
2013-05-18 16:55:00,82.4,54.2,29.93,SE,135,0.0,4.7,38,0.00,,,0.14,WUHU21623XXSP,2013-05-18 21:55:00,
2013-05-18 17:00:00,82.2,54.8,29.93,SE,135,2.7,5.1,39,0.00,,,0.14,WUHU21623XXSP,2013-05-18 22:00:00,
2013-05-18 17:05:00,82.6,54.8,29.93,SSE,157,0.4,5.1,39,0.00,,,0.14,WUHU21623XXSP,2013-05-18 22:05:00,
2013-05-18 17:10:00,82.6,55.1,29.93,SSE,157,2.2,2.2,39,0.00,,,0.14,WUHU21623XXSP,2013-05-18 22:10:00,
2013-05-18 17:15:00,82.8,55.3,29.93,SW,225,0.0,4.5,39,0.00,,,0.14,WUHU21623XXSP,2013-05-18 22:15:00,
2013-05-18 17:20:00,82.6,54.3,29.92,SE,135,3.4,4.5,38,0.00,,,0.14,WUHU21623XXSP,2013-05-18 22:20:00,
2013-05-18 17:25:00,82.6,54.3,29.92,South,180,3.4,3.6,38,0.00,,,0.14,WUHU21623XXSP,2013-05-18 22:25:00,
2013-05-18 17:30:00,82.2,54.0,29.92,SE,135,1.6,3.6,38,0.00,,,0.14,WUHU21623XXSP,2013-05-18 22:30:00,
2013-05-18 17:35:00,82.0,53.9,29.92,SSW,202,2.2,3.4,38,0.00,,,0.14,WUHU21623XXSP,2013-05-18 22:35:00,
2013-05-18 17:40:00,82.0,54.6,29.92,SSE,157,0.0,2.2,39,0.00,,,0.14,WUHU21623XXSP,2013-05-18 22:40:00,
2013-05-18 17:45:00,82.0,54.6,29.92,SSE,157,0.0,2.0,39,0.00,,,0.14,WUHU21623XXSP,2013-05-18 22:45:00,
2013-05-18 17:50:00,82.0,54.6,29.92,SW,225,2.0,2.0,39,0.00,,,0.14,WUHU21623XXSP,2013-05-18 22:50:00,
2013-05-18 17:55:00,81.9,54.5,29.92,South,180,0.0,2.0,39,0.00,,,0.14,WUHU21623XXSP,2013-05-18 22:55:00,
2013-05-18 18:00:00,82.0,54.6,29.92,SW,225,1.6,1.6,39,0.00,,,0.14,WUHU21623XXSP,2013-05-18 23:00:00,
2013-05-18 18:05:00,81.7,54.5,29.92,South,180,2.2,3.4,39,0.00,,,0.14,WUHU21623XXSP,2013-05-18 23:05:00,
2013-05-18 18:10:00,81.7,54.3,29.92,SSE,157,0.7,3.4,39,0.00,,,0.14,WUHU21623XXSP,2013-05-18 23:10:00,
2013-05-18 18:15:00,81.5,55.0,29.92,SSE,157,1.3,2.2,40,0.00,,,0.14,WUHU21623XXSP,2013-05-18 23:15:00,
2013-05-18 18:20:00,81.5,55.0,29.92,SSE,157,0.0,1.3,40,0.00,,,0.14,WUHU21623XXSP,2013-05-18 23:20:00,
2013-05-18 18:25:00,81.5,55.0,29.92,SSE,157,0.7,1.3,40,0.00,,,0.14,WUHU21623XXSP,2013-05-18 23:25:00,
2013-05-18 18:30:00,81.3,55.4,29.92,SE,135,0.9,1.3,41,0.00,,,0.14,WUHU21623XXSP,2013-05-18 23:30:00,
2013-05-18 18:35:00,81.1,55.2,29.91,East,90,0.7,1.3,41,0.00,,,0.14,WUHU21623XXSP,2013-05-18 23:35:00,
2013-05-18 18:40:00,81.1,55.1,29.92,SSE,157,0.9,0.9,41,0.00,,,0.14,WUHU21623XXSP,2013-05-18 23:40:00,
2013-05-18 18:45:00,81.0,55.1,29.92,NW,315,0.0,3.1,41,0.00,,,0.14,WUHU21623XXSP,2013-05-18 23:45:00,
2013-05-18 18:50:00,80.6,54.8,29.92,ESE,112,4.5,4.5,41,0.00,,,0.14,WUHU21623XXSP,2013-05-18 23:50:00,
2013-05-18 18:55:00,80.2,53.8,29.91,South,180,4.0,6.7,40,0.00,,,0.14,WUHU21623XXSP,2013-05-18 23:55:00,
2013-05-18 19:00:00,80.2,53.8,29.92,SSW,202,2.9,6.7,40,0.00,,,0.14,WUHU21623XXSP,2013-05-19 00:00:00,
2013-05-18 19:05:00,80.2,53.8,29.91,ESE,112,1.3,2.9,40,0.00,,,0.14,WUHU21623XXSP,2013-05-19 00:05:00,
2013-05-18 19:10:00,79.9,53.5,29.91,SSE,157,0.0,1.3,40,0.00,,,0.14,WUHU21623XXSP,2013-05-19 00:10:00,
2013-05-18 19:15:00,79.9,54.1,29.91,SE,135,1.3,1.3,41,0.00,,,0.14,WUHU21623XXSP,2013-05-19 00:15:00,
2013-05-18 19:20:00,79.7,53.9,29.91,SSE,157,0.7,1.3,41,0.00,,,0.14,WUHU21623XXSP,2013-05-19 00:20:00,
2013-05-18 19:25:00,79.5,54.4,29.91,SSE,157,0.7,2.5,42,0.00,,,0.14,WUHU21623XXSP,2013-05-19 00:25:00,
2013-05-18 19:30:00,79.3,54.2,29.91,SSW,202,0.9,2.5,42,0.00,,,0.14,WUHU21623XXSP,2013-05-19 00:30:00,
2013-05-18 19:35:00,79.2,53.5,29.91,East,90,2.7,2.7,41,0.00,,,0.14,WUHU21623XXSP,2013-05-19 00:35:00,
2013-05-18 19:40:00,79.0,53.3,29.91,SSE,157,0.9,4.0,41,0.00,,,0.14,WUHU21623XXSP,2013-05-19 00:40:00,
2013-05-18 19:45:00,78.8,53.7,29.91,SE,135,0.0,4.0,42,0.00,,,0.14,WUHU21623XXSP,2013-05-19 00:45:00,
2013-05-18 19:50:00,78.4,53.4,29.92,SSE,157,0.0,0.0,42,0.00,,,0.14,WUHU21623XXSP,2013-05-19 00:50:00,
2013-05-18 19:55:00,78.3,53.9,29.92,ESE,112,2.5,2.5,43,0.00,,,0.14,WUHU21623XXSP,2013-05-19 00:55:00,
2013-05-18 20:00:00,78.1,54.3,29.91,SSW,202,1.3,2.5,44,0.00,,,0.14,WUHU21623XXSP,2013-05-19 01:00:00,
2013-05-18 20:05:00,77.9,54.2,29.92,SE,135,0.0,1.3,44,0.00,,,0.14,WUHU21623XXSP,2013-05-19 01:05:00,
2013-05-18 20:10:00,77.7,54.6,29.92,SSE,157,0.0,0.7,45,0.00,,,0.14,WUHU21623XXSP,2013-05-19 01:10:00,
2013-05-18 20:15:00,77.4,54.3,29.92,SW,225,2.7,2.7,45,0.00,,,0.14,WUHU21623XXSP,2013-05-19 01:15:00,
2013-05-18 20:20:00,77.2,54.1,29.93,East,90,0.0,2.7,45,0.00,,,0.14,WUHU21623XXSP,2013-05-19 01:20:00,
2013-05-18 20:25:00,76.8,54.4,29.93,SSE,157,0.0,0.0,46,0.00,,,0.14,WUHU21623XXSP,2013-05-19 01:25:00,
2013-05-18 20:30:00,76.6,54.2,29.92,SSW,202,0.0,0.0,46,0.00,,,0.14,WUHU21623XXSP,2013-05-19 01:30:00,
2013-05-18 20:35:00,76.3,53.9,29.93,SE,135,0.0,0.0,46,0.00,,,0.14,WUHU21623XXSP,2013-05-19 01:35:00,
2013-05-18 20:40:00,75.9,54.2,29.92,ESE,112,0.4,0.4,47,0.00,,,0.14,WUHU21623XXSP,2013-05-19 01:40:00,
2013-05-18 20:45:00,75.7,54.0,29.92,SSE,157,0.0,0.4,47,0.00,,,0.14,WUHU21623XXSP,2013-05-19 01:45:00,
2013-05-18 20:50:00,75.4,54.3,29.92,SE,135,0.0,0.0,48,0.00,,,0.14,WUHU21623XXSP,2013-05-19 01:50:00,
2013-05-18 20:55:00,75.0,54.0,29.93,ESE,112,0.0,0.0,48,0.00,,,0.14,WUHU21623XXSP,2013-05-19 01:55:00,
2013-05-18 21:00:00,74.8,54.4,29.93,South,180,0.0,0.0,49,0.00,,,0.14,WUHU21623XXSP,2013-05-19 02:00:00,
2013-05-18 21:05:00,74.8,54.4,29.93,SE,135,0.0,2.0,49,0.00,,,0.14,WUHU21623XXSP,2013-05-19 02:05:00,
2013-05-18 21:10:00,74.7,54.9,29.92,SE,135,0.0,2.0,50,0.00,,,0.14,WUHU21623XXSP,2013-05-19 02:10:00,
2013-05-18 21:15:00,74.3,54.5,29.92,SSE,157,0.0,0.0,50,0.00,,,0.14,WUHU21623XXSP,2013-05-19 02:15:00,
2013-05-18 21:20:00,74.3,55.0,29.93,South,180,0.0,0.0,51,0.00,,,0.14,WUHU21623XXSP,2013-05-19 02:20:00,
2013-05-18 21:25:00,74.1,55.3,29.93,SSW,202,0.0,0.0,52,0.00,,,0.14,WUHU21623XXSP,2013-05-19 02:25:00,
2013-05-18 21:30:00,73.8,55.0,29.93,SE,135,0.0,0.0,52,0.00,,,0.14,WUHU21623XXSP,2013-05-19 02:30:00,
2013-05-18 21:35:00,73.8,55.0,29.93,ESE,112,0.0,0.0,52,0.00,,,0.14,WUHU21623XXSP,2013-05-19 02:35:00,
2013-05-18 21:40:00,73.6,55.3,29.93,SSE,157,0.0,0.0,53,0.00,,,0.14,WUHU21623XXSP,2013-05-19 02:40:00,
2013-05-18 21:45:00,73.6,55.3,29.93,SSE,157,0.0,0.0,53,0.00,,,0.14,WUHU21623XXSP,2013-05-19 02:45:00,
2013-05-18 21:50:00,73.4,55.1,29.93,SE,135,0.0,0.0,53,0.00,,,0.14,WUHU21623XXSP,2013-05-19 02:50:00,
2013-05-18 21:55:00,73.0,54.8,29.93,East,90,0.0,0.7,53,0.00,,,0.14,WUHU21623XXSP,2013-05-19 02:55:00,
2013-05-18 22:00:00,73.0,55.3,29.92,SSE,157,1.8,1.8,54,0.00,,,0.14,WUHU21623XXSP,2013-05-19 03:00:00,
2013-05-18 22:05:00,72.9,55.1,29.92,SSE,157,0.0,1.8,54,0.00,,,0.14,WUHU21623XXSP,2013-05-19 03:05:00,
2013-05-18 22:10:00,72.9,55.1,29.92,ESE,112,0.0,0.9,54,0.00,,,0.14,WUHU21623XXSP,2013-05-19 03:10:00,
2013-05-18 22:15:00,72.5,54.8,29.91,SE,135,2.7,2.7,54,0.00,,,0.14,WUHU21623XXSP,2013-05-19 03:15:00,
2013-05-18 22:20:00,72.3,55.1,29.91,ESE,112,0.0,2.7,55,0.00,,,0.14,WUHU21623XXSP,2013-05-19 03:20:00,
2013-05-18 22:25:00,72.1,55.0,29.91,East,90,1.6,1.6,55,0.00,,,0.14,WUHU21623XXSP,2013-05-19 03:25:00,
2013-05-18 22:30:00,72.0,55.3,29.92,SSE,157,0.0,1.6,56,0.00,,,0.14,WUHU21623XXSP,2013-05-19 03:30:00,
2013-05-18 22:35:00,71.8,55.2,29.91,SE,135,0.7,0.7,56,0.00,,,0.14,WUHU21623XXSP,2013-05-19 03:35:00,
2013-05-18 22:40:00,71.8,55.2,29.91,SSE,157,2.2,2.7,56,0.00,,,0.14,WUHU21623XXSP,2013-05-19 03:40:00,
2013-05-18 22:45:00,71.8,55.7,29.91,ESE,112,0.0,2.7,57,0.00,,,0.14,WUHU21623XXSP,2013-05-19 03:45:00,
2013-05-18 22:49:00,71.4,55.3,29.91,SE,135,1.3,1.3,57,0.00,,,0.14,WUHU21623XXSP,2013-05-19 03:49:00,
2013-05-18 22:54:00,71.2,55.2,29.91,SE,135,2.5,2.5,57,0.00,,,0.14,WUHU21623XXSP,2013-05-19 03:54:00,
2013-05-18 22:59:00,71.4,55.7,29.91,ESE,112,0.0,2.5,58,0.00,,,0.14,WUHU21623XXSP,2013-05-19 03:59:00,
2013-05-18 23:01:00,71.2,55.7,29.91,ESE,112,1.3,2.5,58,0.00,,,0.14,WUHU21623XXSP,2013-05-19 04:01:00,
2013-05-18 23:06:00,71.2,55.7,29.90,SE,135,0.0,1.3,58,0.00,,,0.14,WUHU21623XXSP,2013-05-19 04:06:00,
2013-05-18 23:11:00,71.1,55.7,29.91,SSE,157,0.4,1.3,58,0.00,,,0.14,WUHU21623XXSP,2013-05-19 04:11:00,
2013-05-18 23:16:00,71.1,56.0,29.91,ESE,112,0.7,1.3,59,0.00,,,0.14,WUHU21623XXSP,2013-05-19 04:16:00,
2013-05-18 23:21:00,70.9,55.9,29.91,SSE,157,0.0,0.7,59,0.00,,,0.14,WUHU21623XXSP,2013-05-19 04:21:00,
2013-05-18 23:26:00,70.7,55.7,29.91,SE,135,0.0,0.0,59,0.00,,,0.14,WUHU21623XXSP,2013-05-19 04:26:00,
2013-05-18 23:31:00,70.7,55.7,29.90,SE,135,0.0,0.2,59,0.00,,,0.14,WUHU21623XXSP,2013-05-19 04:31:00,
2013-05-18 23:36:00,70.5,55.5,29.91,SSE,157,0.0,0.2,60,0.00,,,0.14,WUHU21623XXSP,2013-05-19 04:36:00,
2013-05-18 23:41:00,70.3,56.3,29.91,SE,135,0.9,1.1,61,0.00,,,0.14,WUHU21623XXSP,2013-05-19 04:41:00,
2013-05-18 23:46:00,70.3,56.3,29.90,SE,135,0.0,1.1,61,0.00,,,0.14,WUHU21623XXSP,2013-05-19 04:46:00,
2013-05-18 23:51:00,70.2,56.1,29.91,SE,135,1.6,1.6,61,0.00,,,0.14,WUHU21623XXSP,2013-05-19 04:51:00,
2013-05-18 23:56:00,70.0,56.0,29.91,SE,135,0.0,1.6,61,0.00,,,0.14,WUHU21623XXSP,2013-05-19 04:56:00,